Wetterverlauf

Letzte Wetterlage 17.09.2014 15:17
Wetterdiagramm
Tabellarische Darstellung
Datum Temperatur Windchill Feuchte Luftdruck Windrichtung Windstärke Niederschlag
17.09.2014 15:17 23,4 °C 23,4 °C 56 % 1015,8 hPa 0.0 0,00 mm
17.09.2014 15:07 23,4 °C 23,4 °C 55 % 1015,8 hPa 0.0 0,00 mm
17.09.2014 14:57 23,4 °C 23,4 °C 55 % 1015,9 hPa 0.0 0,00 mm
17.09.2014 14:47 23,3 °C 23,3 °C 55 % 1016,0 hPa 0.0 0,00 mm
17.09.2014 14:37 23,1 °C 23,1 °C 55 % 1016,1 hPa 0.0 0,00 mm
17.09.2014 14:27 23,0 °C 23,0 °C 55 % 1016,1 hPa 0.0 0,00 mm
17.09.2014 14:17 22,7 °C 22,7 °C 56 % 1016,3 hPa 0.0 0,00 mm
17.09.2014 14:07 22,6 °C 22,6 °C 55 % 1016,3 hPa 0.0 0,00 mm
17.09.2014 13:57 22,6 °C 22,6 °C 54 % 1016,4 hPa 0.0 0,00 mm
17.09.2014 13:47 22,5 °C 22,5 °C 54 % 1016,4 hPa 0.0 0,00 mm
17.09.2014 13:37 22,4 °C 22,4 °C 52 % 1016,5 hPa 0.0 0,00 mm
17.09.2014 13:27 22,2 °C 22,2 °C 53 % 1016,5 hPa 0.0 0,00 mm
17.09.2014 13:17 22,0 °C 22,0 °C 51 % 1016,6 hPa 0.0 0,00 mm
17.09.2014 13:07 21,7 °C 21,7 °C 52 % 1016,7 hPa 0.0 0,00 mm
17.09.2014 12:57 21,6 °C 21,6 °C 52 % 1016,7 hPa 0.0 0,00 mm
17.09.2014 12:47 21,5 °C 21,5 °C 49 % 1016,8 hPa 0.0 0,00 mm
17.09.2014 12:37 21,2 °C 21,2 °C 49 % 1016,9 hPa 0.0 0,00 mm
17.09.2014 12:27 20,9 °C 20,9 °C 49 % 1016,9 hPa 0.0 0,00 mm
17.09.2014 12:17 20,7 °C 20,7 °C 49 % 1016,9 hPa 0.0 0,00 mm
17.09.2014 12:07 20,4 °C 20,4 °C 50 % 1017,0 hPa 0.0 0,00 mm
17.09.2014 11:57 20,2 °C 20,2 °C 50 % 1017,0 hPa 0.0 0,00 mm
17.09.2014 11:47 19,9 °C 19,9 °C 51 % 1017,0 hPa 0.0 0,00 mm
17.09.2014 11:37 19,5 °C 19,5 °C 51 % 1017,1 hPa 0.0 0,00 mm
17.09.2014 11:27 19,2 °C 19,2 °C 51 % 1017,2 hPa 0.0 0,00 mm
17.09.2014 11:17 18,9 °C 18,9 °C 51 % 1017,3 hPa 0.0 0,00 mm
Empfehlen Sie wetter.com
| Mehr
Neue Wetterwarnung

Neue Niederschlagsmeldung
Neue Meldung
Regen Liveticker
    sehr starker Regen/Gewitter
    starker Regen/Gewitter
    mäßiger bis starker Regen
    mäßiger Regen
    leichter bis mäßiger Regen
    kein Regen